createdAt,value
2022-09-09T00:00:23.208Z,9.280008
2022-09-09T00:01:23.165Z,9.279903
2022-09-09T00:02:23.182Z,9.279925
2022-09-09T00:03:23.193Z,9.280038
2022-09-09T00:04:23.097Z,9.279913
2022-09-09T00:05:23.104Z,9.279839
2022-09-09T00:06:23.062Z,9.279888
2022-09-09T00:07:23.047Z,9.279930
2022-09-09T00:08:23.019Z,9.279881
2022-09-09T00:09:22.999Z,9.279922
2022-09-09T00:10:23.004Z,9.279890
2022-09-09T00:11:22.953Z,9.279903
2022-09-09T00:12:22.932Z,9.279984
2022-09-09T00:13:22.914Z,9.279939
2022-09-09T00:14:22.890Z,9.279805
2022-09-09T00:15:22.899Z,9.279810
2022-09-09T00:16:22.915Z,9.279838
2022-09-09T00:17:22.830Z,9.279840
2022-09-09T00:18:22.806Z,9.279879
2022-09-09T00:19:22.785Z,9.279870
2022-09-09T00:20:22.790Z,9.279900
2022-09-09T00:21:22.745Z,9.279921
2022-09-09T00:22:22.733Z,9.279976
2022-09-09T00:23:22.703Z,9.280021
2022-09-09T00:24:22.684Z,9.280002
2022-09-09T00:25:22.692Z,9.279964
2022-09-09T00:26:22.643Z,9.279890
2022-09-09T00:27:22.628Z,9.279919
2022-09-09T00:28:22.603Z,9.279905
2022-09-09T00:29:22.583Z,9.279899
2022-09-09T00:30:22.584Z,9.279954
2022-09-09T00:31:22.557Z,9.279897
2022-09-09T00:32:22.516Z,9.279951
2022-09-09T00:33:22.498Z,9.279943
2022-09-09T00:34:22.470Z,9.279867
2022-09-09T00:35:22.482Z,9.279958
2022-09-09T00:36:22.432Z,9.280024
2022-09-09T00:37:22.412Z,9.279980
2022-09-09T00:38:22.388Z,9.279932
2022-09-09T00:39:22.366Z,9.280025
2022-09-09T00:40:22.372Z,9.280032
2022-09-09T00:41:22.327Z,9.279910
2022-09-09T00:42:22.304Z,9.279870
2022-09-09T00:43:22.280Z,9.279980
2022-09-09T00:44:22.259Z,9.279974
2022-09-09T00:45:22.263Z,9.280035
2022-09-09T00:46:22.271Z,9.279979
2022-09-09T00:47:22.206Z,9.280004
2022-09-09T00:48:22.177Z,9.280012
2022-09-09T00:49:22.158Z,9.280014
2022-09-09T00:50:22.165Z,9.279949
2022-09-09T00:51:22.117Z,9.279951
2022-09-09T00:52:22.097Z,9.280009
2022-09-09T00:53:22.080Z,9.280017
2022-09-09T00:54:22.059Z,9.280021
2022-09-09T00:55:22.068Z,9.280027
2022-09-09T00:56:22.016Z,9.280013
2022-09-09T00:57:21.995Z,9.280027
2022-09-09T00:58:21.975Z,9.279993
2022-09-09T00:59:25.494Z,9.280041
2022-09-09T01:00:22.962Z,9.280015
2022-09-09T01:01:21.960Z,9.279985
2022-09-09T01:02:21.951Z,9.280056
2022-09-09T01:03:21.873Z,9.280039
2022-09-09T01:04:21.858Z,9.280079
2022-09-09T01:05:21.861Z,9.279979
2022-09-09T01:06:21.815Z,9.280057
2022-09-09T01:07:21.792Z,9.280082
2022-09-09T01:08:21.773Z,9.280088
2022-09-09T01:09:21.755Z,9.280057
2022-09-09T01:10:21.762Z,9.280000
2022-09-09T01:11:21.715Z,9.280093
2022-09-09T01:12:21.699Z,9.280062
2022-09-09T01:13:21.676Z,9.279968
2022-09-09T01:14:21.655Z,9.280123
2022-09-09T01:15:21.664Z,9.280093
2022-09-09T01:16:21.661Z,9.280063
2022-09-09T01:17:21.596Z,9.279937
2022-09-09T01:18:21.581Z,9.279922
2022-09-09T01:19:21.555Z,9.280014
2022-09-09T01:20:21.568Z,9.280054
2022-09-09T01:21:21.516Z,9.280053
2022-09-09T01:22:21.499Z,9.280116
2022-09-09T01:23:21.483Z,9.280086
2022-09-09T01:24:21.460Z,9.280054
2022-09-09T01:25:21.472Z,9.280064
2022-09-09T01:26:21.418Z,9.280031
2022-09-09T01:27:21.406Z,9.280008
2022-09-09T01:28:21.382Z,9.280025
2022-09-09T01:29:21.359Z,9.280007
2022-09-09T01:30:21.374Z,9.279969
2022-09-09T01:31:21.396Z,9.279990
2022-09-09T01:32:21.298Z,9.280005
2022-09-09T01:33:21.279Z,9.279975
2022-09-09T01:34:21.261Z,9.279997
2022-09-09T01:35:21.269Z,9.280070
2022-09-09T01:36:21.217Z,9.280062
2022-09-09T01:37:21.199Z,9.280003
2022-09-09T01:38:21.177Z,9.280003
2022-09-09T01:39:21.158Z,9.280043
2022-09-09T01:40:21.195Z,9.280061
2022-09-09T01:41:21.117Z,9.280048
2022-09-09T01:42:21.089Z,9.279964
2022-09-09T01:43:21.078Z,9.279951
2022-09-09T01:44:21.060Z,9.279945
2022-09-09T01:45:21.066Z,9.279973
2022-09-09T01:46:21.055Z,9.279975
2022-09-09T01:47:20.993Z,9.279913
2022-09-09T01:48:20.972Z,9.279886
2022-09-09T01:49:20.950Z,9.279977
2022-09-09T01:50:20.957Z,9.279975
2022-09-09T01:51:20.909Z,9.279989
2022-09-09T01:52:20.885Z,9.280005
2022-09-09T01:53:20.865Z,9.279924
2022-09-09T01:54:20.843Z,9.279934
2022-09-09T01:55:20.849Z,9.279948
2022-09-09T01:56:20.803Z,9.279986
2022-09-09T01:57:20.786Z,9.279924
2022-09-09T01:58:20.754Z,9.280043
2022-09-09T01:59:20.741Z,9.279935
2022-09-09T02:00:20.748Z,9.279939
2022-09-09T02:01:20.722Z,9.279979
2022-09-09T02:02:20.754Z,9.280002
2022-09-09T02:03:20.656Z,9.279970
2022-09-09T02:04:20.635Z,9.279954
2022-09-09T02:05:20.749Z,9.279976
2022-09-09T02:06:20.594Z,9.280046
2022-09-09T02:07:20.577Z,9.279936
2022-09-09T02:08:20.552Z,9.279878
2022-09-09T02:09:20.537Z,9.279910
2022-09-09T02:10:20.543Z,9.279930
2022-09-09T02:11:20.493Z,9.279860
2022-09-09T02:12:20.477Z,9.279927
2022-09-09T02:13:20.453Z,9.279976
2022-09-09T02:14:20.435Z,9.279891
2022-09-09T02:15:20.539Z,9.279998
2022-09-09T02:16:20.418Z,9.279950
2022-09-09T02:17:20.373Z,9.279982
2022-09-09T02:18:20.364Z,9.279948
2022-09-09T02:19:20.331Z,9.279993
2022-09-09T02:20:20.468Z,9.279962
2022-09-09T02:21:20.292Z,9.279967
2022-09-09T02:22:20.269Z,9.279930
2022-09-09T02:23:20.348Z,9.279857
2022-09-09T02:24:20.232Z,9.279901
2022-09-09T02:25:20.239Z,9.279902
2022-09-09T02:26:20.191Z,9.279881
2022-09-09T02:27:20.179Z,9.279894
2022-09-09T02:28:20.152Z,9.279848
2022-09-09T02:29:20.130Z,9.279834
2022-09-09T02:30:20.189Z,9.279864
2022-09-09T02:31:20.092Z,9.279886
2022-09-09T02:32:20.074Z,9.279914
2022-09-09T02:33:20.054Z,9.279860
2022-09-09T02:34:20.039Z,9.279860
2022-09-09T02:35:20.037Z,9.279922
2022-09-09T02:36:19.991Z,9.279948
2022-09-09T02:37:19.972Z,9.279967
2022-09-09T02:38:19.950Z,9.279931
2022-09-09T02:39:19.927Z,9.279982
2022-09-09T02:40:19.934Z,9.279912
2022-09-09T02:41:19.889Z,9.279934
2022-09-09T02:42:19.867Z,9.279949
2022-09-09T02:43:19.849Z,9.279922
2022-09-09T02:44:19.826Z,9.279902
2022-09-09T02:45:19.836Z,9.279902
2022-09-09T02:46:19.843Z,9.279941
2022-09-09T02:47:19.768Z,9.279907
2022-09-09T02:48:19.746Z,9.279946
2022-09-09T02:49:19.721Z,9.279929
2022-09-09T02:50:19.726Z,9.279931
2022-09-09T02:51:19.680Z,9.279920
2022-09-09T02:52:19.663Z,9.279877
2022-09-09T02:53:19.642Z,9.279843
2022-09-09T02:54:19.619Z,9.279819
2022-09-09T02:55:19.633Z,9.279930
2022-09-09T02:56:19.582Z,9.279965
2022-09-09T02:57:19.563Z,9.279914
2022-09-09T02:58:19.544Z,9.279900
2022-09-09T02:59:19.516Z,9.279819
2022-09-09T03:00:19.554Z,9.279859
2022-09-09T03:01:19.562Z,9.279869
2022-09-09T03:02:19.578Z,9.279881
2022-09-09T03:03:19.436Z,9.279839
2022-09-09T03:04:19.416Z,9.279834
2022-09-09T03:05:19.392Z,9.279984
2022-09-09T03:06:19.402Z,9.279970
2022-09-09T03:07:19.349Z,9.279928
2022-09-09T03:08:19.327Z,9.279939
2022-09-09T03:09:19.306Z,9.279946
2022-09-09T03:10:19.290Z,9.279920
2022-09-09T03:11:19.290Z,9.279860
2022-09-09T03:12:19.244Z,9.279876
2022-09-09T03:13:19.220Z,9.279955
2022-09-09T03:14:19.200Z,9.279936
2022-09-09T03:15:19.183Z,9.279938
2022-09-09T03:16:19.199Z,9.279921
2022-09-09T03:17:19.139Z,9.279974
2022-09-09T03:18:19.107Z,9.280025
2022-09-09T03:19:20.093Z,9.279996
2022-09-09T03:20:19.070Z,9.279936
2022-09-09T03:21:19.080Z,9.279974
2022-09-09T03:22:19.030Z,9.279951
2022-09-09T03:23:19.007Z,9.279966
2022-09-09T03:24:18.990Z,9.280019
2022-09-09T03:25:18.960Z,9.279919
2022-09-09T03:26:18.969Z,9.279911
2022-09-09T03:27:18.925Z,9.279989
2022-09-09T03:28:18.903Z,9.280002
2022-09-09T03:29:18.883Z,9.279989
2022-09-09T03:30:18.858Z,9.280030
2022-09-09T03:31:18.911Z,9.279968
2022-09-09T03:32:18.825Z,9.279989
2022-09-09T03:33:18.800Z,9.280091
2022-09-09T03:34:18.774Z,9.279968
2022-09-09T03:35:18.753Z,9.279937
2022-09-09T03:36:18.757Z,9.279945
2022-09-09T03:37:18.710Z,9.279950
2022-09-09T03:38:18.691Z,9.279979
2022-09-09T03:39:18.675Z,9.280045
2022-09-09T03:40:18.715Z,9.279959
2022-09-09T03:41:18.655Z,9.279999
2022-09-09T03:42:18.606Z,9.279968
2022-09-09T03:43:18.582Z,9.280173
2022-09-09T03:44:18.560Z,9.280115
2022-09-09T03:45:18.541Z,9.279934
2022-09-09T03:46:18.585Z,9.279895
2022-09-09T03:47:18.496Z,9.280072
2022-09-09T03:48:19.483Z,9.279973
2022-09-09T03:49:18.458Z,9.279872
2022-09-09T03:50:18.437Z,9.279882
2022-09-09T03:51:18.445Z,9.280012
2022-09-09T03:52:22.929Z,9.280061
2022-09-09T03:53:20.378Z,9.280061
2022-09-09T03:54:18.354Z,9.280010
2022-09-09T03:55:18.334Z,9.279967
2022-09-09T03:56:18.340Z,9.279940
2022-09-09T03:57:18.295Z,9.280039
2022-09-09T03:58:18.274Z,9.280053
2022-09-09T03:59:18.252Z,9.279969
2022-09-09T04:00:18.229Z,9.279676
2022-09-09T04:01:18.266Z,9.279659
2022-09-09T04:02:18.240Z,9.279610
2022-09-09T04:03:18.169Z,9.279612
2022-09-09T04:04:18.148Z,9.279893
2022-09-09T04:05:18.130Z,9.280098
2022-09-09T04:06:18.138Z,9.280048
2022-09-09T04:07:18.087Z,9.280138
2022-09-09T04:08:18.064Z,9.280242
2022-09-09T04:09:18.045Z,9.280279
2022-09-09T04:10:18.021Z,9.280152
2022-09-09T04:11:18.031Z,9.280206
2022-09-09T04:12:17.979Z,9.280068
2022-09-09T04:13:17.956Z,9.280019
2022-09-09T04:14:17.935Z,9.280185
2022-09-09T04:15:17.917Z,9.280083
2022-09-09T04:16:17.976Z,9.280107
2022-09-09T04:17:17.878Z,9.279814
2022-09-09T04:18:20.009Z,9.279889
2022-09-09T04:19:18.834Z,9.279937
2022-09-09T04:20:17.814Z,9.279984
2022-09-09T04:21:17.819Z,9.279905
2022-09-09T04:22:17.774Z,9.279947
2022-09-09T04:23:17.750Z,9.279870
2022-09-09T04:24:17.727Z,9.279794
2022-09-09T04:25:17.707Z,9.279824
2022-09-09T04:26:17.711Z,9.279804
2022-09-09T04:27:17.666Z,9.279799
2022-09-09T04:28:17.642Z,9.279738
2022-09-09T04:29:17.626Z,9.279832
2022-09-09T04:30:17.598Z,9.279947
2022-09-09T04:31:17.633Z,9.279964
2022-09-09T04:32:17.554Z,9.279893
2022-09-09T04:33:17.536Z,9.280133
2022-09-09T04:34:17.510Z,9.280004
2022-09-09T04:35:17.496Z,9.279930
2022-09-09T04:36:17.504Z,9.279916
2022-09-09T04:37:17.452Z,9.279899
2022-09-09T04:38:17.429Z,9.279703
2022-09-09T04:39:17.407Z,9.279879
2022-09-09T04:40:17.424Z,9.279902
2022-09-09T04:41:17.393Z,9.279900
2022-09-09T04:42:17.342Z,9.279931
2022-09-09T04:43:17.339Z,9.279894
2022-09-09T04:44:17.296Z,9.279951
2022-09-09T04:45:17.277Z,9.280026
2022-09-09T04:46:17.359Z,9.280000
2022-09-09T04:47:17.236Z,9.279882
2022-09-09T04:48:17.213Z,9.279956
2022-09-09T04:49:17.191Z,9.279963
2022-09-09T04:50:17.168Z,9.279874
2022-09-09T04:51:17.182Z,9.279871
2022-09-09T04:52:17.169Z,9.279854
2022-09-09T04:53:17.103Z,9.279872
2022-09-09T04:54:17.075Z,9.279880
2022-09-09T04:55:17.057Z,9.279817
2022-09-09T04:56:17.068Z,9.279860
2022-09-09T04:57:18.895Z,9.279858
2022-09-09T04:58:17.998Z,9.279820
2022-09-09T04:59:16.976Z,9.279842
2022-09-09T05:00:16.967Z,9.279846
2022-09-09T05:01:17.037Z,9.279843
2022-09-09T05:02:16.974Z,9.279846
2022-09-09T05:03:16.906Z,9.279835
2022-09-09T05:04:16.871Z,9.279870
2022-09-09T05:05:16.847Z,9.279910
2022-09-09T05:06:16.869Z,9.279875
2022-09-09T05:07:16.806Z,9.279936
2022-09-09T05:08:16.785Z,9.279903
2022-09-09T05:09:16.768Z,9.279802
2022-09-09T05:10:16.745Z,9.279796
2022-09-09T05:11:16.746Z,9.279813
2022-09-09T05:12:16.702Z,9.279866
2022-09-09T05:13:16.681Z,9.279839
2022-09-09T05:14:16.659Z,9.279848
2022-09-09T05:15:16.632Z,9.279871
2022-09-09T05:16:16.690Z,9.279872
2022-09-09T05:17:16.593Z,9.279798
2022-09-09T05:18:16.569Z,9.279876
2022-09-09T05:19:16.551Z,9.279851
2022-09-09T05:20:17.561Z,9.279878
2022-09-09T05:21:17.528Z,9.279850
2022-09-09T05:22:16.476Z,9.279761
2022-09-09T05:23:16.454Z,9.279856
2022-09-09T05:24:16.435Z,9.279825
2022-09-09T05:25:16.410Z,9.279834
2022-09-09T05:26:17.710Z,9.279756
2022-09-09T05:27:17.373Z,9.279710
2022-09-09T05:28:16.347Z,9.279813
2022-09-09T05:29:16.320Z,9.279846
2022-09-09T05:30:16.302Z,9.279868
2022-09-09T05:31:16.366Z,9.279847
2022-09-09T05:32:16.257Z,9.279892
2022-09-09T05:33:16.228Z,9.279873
2022-09-09T05:34:16.208Z,9.279883
2022-09-09T05:35:16.186Z,9.279911
2022-09-09T05:36:16.187Z,9.279816
2022-09-09T05:37:16.144Z,9.279797
2022-09-09T05:38:16.117Z,9.279847
2022-09-09T05:39:16.094Z,9.279938
2022-09-09T05:40:16.144Z,9.279943
2022-09-09T05:41:16.092Z,9.279927
2022-09-09T05:42:16.025Z,9.279813
2022-09-09T05:43:16.010Z,9.279918
2022-09-09T05:44:15.984Z,9.279926
2022-09-09T05:45:15.963Z,9.279879
2022-09-09T05:46:16.012Z,9.279883
2022-09-09T05:47:15.917Z,9.279897
2022-09-09T05:48:15.895Z,9.279931
2022-09-09T05:49:15.871Z,9.279911
2022-09-09T05:50:15.852Z,9.279921
2022-09-09T05:51:15.854Z,9.279913
2022-09-09T05:52:15.806Z,9.279908
2022-09-09T05:53:15.786Z,9.279986
2022-09-09T05:54:15.761Z,9.279999
2022-09-09T05:55:15.738Z,9.279976
2022-09-09T05:56:15.741Z,9.280033
2022-09-09T05:57:15.693Z,9.279970
2022-09-09T05:58:15.673Z,9.279919
2022-09-09T05:59:15.644Z,9.280009
2022-09-09T06:00:15.632Z,9.279987
2022-09-09T06:01:15.628Z,9.279984
2022-09-09T06:02:15.697Z,9.280030
2022-09-09T06:03:15.658Z,9.280002
2022-09-09T06:04:15.532Z,9.280017
2022-09-09T06:05:15.510Z,9.279950
2022-09-09T06:06:15.518Z,9.280031
2022-09-09T06:07:15.472Z,9.280043
2022-09-09T06:08:15.444Z,9.279969
2022-09-09T06:09:15.421Z,9.279922
2022-09-09T06:10:15.399Z,9.279922
2022-09-09T06:11:15.404Z,9.279947
2022-09-09T06:12:15.351Z,9.279882
2022-09-09T06:13:15.333Z,9.279972
2022-09-09T06:14:15.309Z,9.279947
2022-09-09T06:15:15.286Z,9.279986
2022-09-09T06:16:15.365Z,9.279972
2022-09-09T06:17:15.241Z,9.279992
2022-09-09T06:18:15.221Z,9.279954
2022-09-09T06:19:15.193Z,9.279904
2022-09-09T06:20:15.177Z,9.279902
2022-09-09T06:21:15.185Z,9.279943
2022-09-09T06:22:15.129Z,9.279933
2022-09-09T06:23:15.112Z,9.279990
2022-09-09T06:24:15.078Z,9.279997
2022-09-09T06:25:16.062Z,9.279936
2022-09-09T06:26:15.065Z,9.279916
2022-09-09T06:27:15.022Z,9.279968
2022-09-09T06:28:14.998Z,9.280005
2022-09-09T06:29:14.975Z,9.280022
2022-09-09T06:30:14.947Z,9.279942
2022-09-09T06:31:14.976Z,9.279967
2022-09-09T06:32:14.938Z,9.279961
2022-09-09T06:33:14.889Z,9.279879
2022-09-09T06:34:14.862Z,9.279938
2022-09-09T06:35:14.842Z,9.279870
2022-09-09T06:36:14.824Z,9.279871
2022-09-09T06:37:14.827Z,9.279851
2022-09-09T06:38:14.785Z,9.279870
2022-09-09T06:39:15.290Z,9.279957
2022-09-09T06:40:14.816Z,9.279965
2022-09-09T06:41:14.726Z,9.279939
2022-09-09T06:42:14.739Z,9.279939
2022-09-09T06:43:14.694Z,9.279976
2022-09-09T06:44:14.673Z,9.279927
2022-09-09T06:45:14.653Z,9.279972
2022-09-09T06:46:14.711Z,9.279863
2022-09-09T06:47:14.643Z,9.280105
2022-09-09T06:48:14.597Z,9.280041
2022-09-09T06:49:14.578Z,9.279905
2022-09-09T06:50:14.562Z,9.279897
2022-09-09T06:51:14.540Z,9.279891
2022-09-09T06:52:14.551Z,9.279917
2022-09-09T06:53:14.511Z,9.280022
2022-09-09T06:54:14.488Z,9.279940
2022-09-09T06:55:14.539Z,9.279919
2022-09-09T06:56:17.884Z,9.279956
2022-09-09T06:57:35.964Z,9.279946
2022-09-09T06:58:16.420Z,9.279898
2022-09-09T06:59:14.400Z,9.279824
2022-09-09T07:00:14.456Z,9.279831
2022-09-09T07:01:14.377Z,9.279944
2022-09-09T07:02:14.372Z,9.279928
2022-09-09T07:03:14.317Z,9.280011
2022-09-09T07:04:14.301Z,9.279879
2022-09-09T07:05:14.281Z,9.279844
2022-09-09T07:06:14.265Z,9.279787
2022-09-09T07:07:14.274Z,9.279915
2022-09-09T07:08:14.227Z,9.279877
2022-09-09T07:09:14.207Z,9.279858
2022-09-09T07:10:14.264Z,9.279848
2022-09-09T07:11:14.177Z,9.279975
2022-09-09T07:12:14.181Z,9.279960
2022-09-09T07:13:14.139Z,9.279947
2022-09-09T07:14:14.115Z,9.279986
2022-09-09T07:15:14.100Z,9.280027
2022-09-09T07:16:14.146Z,9.280029
2022-09-09T07:17:14.083Z,9.279918
2022-09-09T07:18:14.036Z,9.279814
2022-09-09T07:19:14.014Z,9.279830
2022-09-09T07:20:14.003Z,9.279893
2022-09-09T07:21:13.981Z,9.279992
2022-09-09T07:22:13.989Z,9.279741
2022-09-09T07:23:13.942Z,9.279922
2022-09-09T07:24:14.022Z,9.279917
2022-09-09T07:25:13.904Z,9.279996
2022-09-09T07:26:13.883Z,9.280036
2022-09-09T07:27:13.902Z,9.280022
2022-09-09T07:28:13.848Z,9.279991
2022-09-09T07:29:17.259Z,9.279848
2022-09-09T07:30:21.048Z,9.279975
2022-09-09T07:31:15.842Z,9.279902
2022-09-09T07:32:13.807Z,9.280176
2022-09-09T07:33:13.762Z,9.280334
2022-09-09T07:34:13.745Z,9.280498
2022-09-09T07:35:13.730Z,9.280594
2022-09-09T07:36:13.707Z,9.280591
2022-09-09T07:37:13.721Z,9.280553
2022-09-09T07:38:13.670Z,9.280175
2022-09-09T07:39:13.650Z,9.280268
2022-09-09T07:40:13.820Z,9.280287
2022-09-09T07:41:13.613Z,9.280091
2022-09-09T07:42:13.624Z,9.280110
2022-09-09T07:43:17.247Z,9.280013
2022-09-09T07:44:14.558Z,9.280129
2022-09-09T07:45:13.540Z,9.280109
2022-09-09T07:46:13.592Z,9.280115
2022-09-09T07:47:13.531Z,9.280025
2022-09-09T07:48:13.488Z,9.279998
2022-09-09T07:49:13.473Z,9.280084
2022-09-09T07:50:13.451Z,9.280125
2022-09-09T07:51:13.426Z,9.280024
2022-09-09T07:52:14.907Z,9.279991
2022-09-09T07:53:13.391Z,9.280107
2022-09-09T07:54:13.371Z,9.280324
2022-09-09T07:55:13.358Z,9.280272
2022-09-09T07:56:13.333Z,9.280074
2022-09-09T07:57:13.351Z,9.280029
2022-09-09T07:58:13.294Z,9.280097
2022-09-09T07:59:13.275Z,9.280058
2022-09-09T08:00:13.254Z,9.280099
2022-09-09T08:01:13.239Z,9.280031
2022-09-09T08:02:13.252Z,9.280014
2022-09-09T08:03:13.210Z,9.280008
2022-09-09T08:04:13.179Z,9.280049
2022-09-09T08:05:13.163Z,9.280059
2022-09-09T08:06:13.139Z,9.280107
2022-09-09T08:07:13.147Z,9.280123
2022-09-09T08:08:13.104Z,9.280135
2022-09-09T08:09:13.083Z,9.280118
2022-09-09T08:10:13.064Z,9.280049
2022-09-09T08:11:13.049Z,9.280034
2022-09-09T08:12:13.061Z,9.279994
2022-09-09T08:13:18.503Z,9.280027
2022-09-09T08:14:14.993Z,9.279975
2022-09-09T08:15:12.972Z,9.279975
2022-09-09T08:16:12.992Z,9.280027
2022-09-09T08:17:12.960Z,9.280013
2022-09-09T08:18:12.917Z,9.279980
2022-09-09T08:19:12.894Z,9.279943
2022-09-09T08:20:12.876Z,9.279945
2022-09-09T08:21:12.859Z,9.279912
2022-09-09T08:22:12.874Z,9.279969
2022-09-09T08:23:12.822Z,9.280082
2022-09-09T08:24:12.806Z,9.280026
2022-09-09T08:25:12.784Z,9.279987
2022-09-09T08:26:12.771Z,9.279914
2022-09-09T08:27:12.777Z,9.279961
2022-09-09T08:28:13.727Z,9.279909
2022-09-09T08:29:12.731Z,9.279928
2022-09-09T08:30:13.978Z,9.279954
2022-09-09T08:31:13.758Z,9.279932
2022-09-09T08:32:12.681Z,9.279939
2022-09-09T08:33:12.640Z,9.279971
2022-09-09T08:34:12.610Z,9.279947
2022-09-09T08:35:13.599Z,9.280015
2022-09-09T08:36:12.580Z,9.280026
2022-09-09T08:37:12.590Z,9.280026
2022-09-09T08:38:12.541Z,9.279892
2022-09-09T08:39:12.525Z,9.279924
2022-09-09T08:40:12.569Z,9.279940
2022-09-09T08:41:12.487Z,9.279962
2022-09-09T08:42:12.501Z,9.279925
2022-09-09T08:43:12.458Z,9.279978
2022-09-09T08:44:12.435Z,9.280003
2022-09-09T08:45:12.419Z,9.279951
2022-09-09T08:46:12.452Z,9.279917
2022-09-09T08:47:12.413Z,9.279819
2022-09-09T08:48:12.367Z,9.279791
2022-09-09T08:49:12.347Z,9.279748
2022-09-09T08:50:12.361Z,9.279762
2022-09-09T08:51:12.315Z,9.279730
2022-09-09T08:52:12.320Z,9.279755
2022-09-09T08:53:12.275Z,9.279778
2022-09-09T08:54:12.260Z,9.279871
2022-09-09T08:55:12.238Z,9.279854
2022-09-09T08:56:12.221Z,9.279964
2022-09-09T08:57:12.230Z,9.279996
2022-09-09T08:58:12.180Z,9.280036
2022-09-09T08:59:12.162Z,9.280042
2022-09-09T09:00:12.145Z,9.279967
2022-09-09T09:01:12.228Z,9.279955
2022-09-09T09:02:16.025Z,9.279979
2022-09-09T09:03:13.092Z,9.280007
2022-09-09T09:04:12.108Z,9.279954
2022-09-09T09:05:12.054Z,9.279919
2022-09-09T09:06:12.038Z,9.279833
2022-09-09T09:07:12.043Z,9.279912
2022-09-09T09:08:11.999Z,9.279801
2022-09-09T09:09:11.979Z,9.279863
2022-09-09T09:10:30.695Z,9.279863
2022-09-09T09:11:13.947Z,9.279871
2022-09-09T09:12:11.955Z,9.279912
2022-09-09T09:13:11.904Z,9.279731
2022-09-09T09:14:11.890Z,9.279671
2022-09-09T09:15:11.877Z,9.279684
2022-09-09T09:16:11.885Z,9.279747
2022-09-09T09:17:11.858Z,9.279820
2022-09-09T09:18:11.813Z,9.279869
2022-09-09T09:19:11.794Z,9.279927
2022-09-09T09:20:11.772Z,9.279798
2022-09-09T09:21:11.756Z,9.279934
2022-09-09T09:22:11.759Z,9.279914
2022-09-09T09:23:11.715Z,9.279894
2022-09-09T09:24:11.695Z,9.279956
2022-09-09T09:25:11.682Z,9.280110
2022-09-09T09:26:11.660Z,9.280037
2022-09-09T09:27:11.679Z,9.280076
2022-09-09T09:28:11.621Z,9.279855
2022-09-09T09:29:11.599Z,9.280000
2022-09-09T09:30:25.157Z,9.279853
2022-09-09T09:31:13.598Z,9.279825
2022-09-09T09:32:11.573Z,9.279797
2022-09-09T09:33:11.532Z,9.279897
2022-09-09T09:34:11.519Z,9.279937
2022-09-09T09:35:11.496Z,9.279824
2022-09-09T09:36:11.472Z,9.279883
2022-09-09T09:37:11.481Z,9.279909
2022-09-09T09:40:13.467Z,9.279830
2022-09-09T09:41:11.377Z,9.279786
2022-09-09T09:42:11.384Z,9.279736
2022-09-09T09:43:11.336Z,9.279852
2022-09-09T09:44:11.316Z,9.279775
2022-09-09T09:45:11.295Z,9.279776
2022-09-09T09:46:18.516Z,9.279814
2022-09-09T09:47:13.291Z,9.279855
2022-09-09T09:48:13.810Z,9.279832
2022-09-09T09:49:12.223Z,9.279814
2022-09-09T09:50:11.939Z,9.279778
2022-09-09T09:51:11.181Z,9.279882
2022-09-09T09:52:11.187Z,9.279875
2022-09-09T09:53:11.143Z,9.279887
2022-09-09T09:54:11.125Z,9.279868
2022-09-09T09:55:11.107Z,9.279950
2022-09-09T09:56:11.087Z,9.279839
2022-09-09T09:57:11.095Z,9.279834
2022-09-09T09:58:13.008Z,9.279942
2022-09-09T09:59:17.991Z,9.279915
2022-09-09T10:00:13.075Z,9.279855
2022-09-09T10:01:11.014Z,9.279835
2022-09-09T10:02:11.002Z,9.279841
2022-09-09T10:03:10.952Z,9.279732
2022-09-09T10:04:10.933Z,9.279746
2022-09-09T10:05:10.911Z,9.279835
2022-09-09T10:06:10.899Z,9.279969
2022-09-09T10:07:10.963Z,9.279863
2022-09-09T10:08:10.854Z,9.279851
2022-09-09T10:09:10.836Z,9.279813
2022-09-09T10:10:10.814Z,9.279819
2022-09-09T10:11:10.800Z,9.279848
2022-09-09T10:12:10.804Z,9.279848
2022-09-09T10:13:10.786Z,9.279951
2022-09-09T10:14:10.739Z,9.280003
2022-09-09T10:15:10.724Z,9.279991
2022-09-09T10:16:10.766Z,9.279881
2022-09-09T10:17:10.715Z,9.279899
2022-09-09T10:18:10.667Z,9.279852
2022-09-09T10:19:10.645Z,9.279904
2022-09-09T10:20:10.746Z,9.279911
2022-09-09T10:21:10.612Z,9.279980
2022-09-09T10:22:10.618Z,9.279943
2022-09-09T10:23:10.572Z,9.279949
2022-09-09T10:24:10.591Z,9.279933
2022-09-09T10:25:10.534Z,9.279863
2022-09-09T10:26:10.522Z,9.279931
2022-09-09T10:27:10.523Z,9.279976
2022-09-09T10:28:10.481Z,9.279982
2022-09-09T10:29:10.458Z,9.279969
2022-09-09T10:30:10.471Z,9.279994
2022-09-09T10:31:10.479Z,9.279904
2022-09-09T10:32:10.423Z,9.279976
2022-09-09T10:34:11.358Z,9.279999
2022-09-09T10:35:10.345Z,9.279960
2022-09-09T10:36:10.328Z,9.279947
2022-09-09T10:37:10.334Z,9.279943
2022-09-09T10:38:10.290Z,9.279957
2022-09-09T10:39:10.266Z,9.279963
2022-09-09T10:40:10.408Z,9.279938
2022-09-09T10:41:10.220Z,9.279930
2022-09-09T10:42:11.235Z,9.279974
2022-09-09T10:43:10.191Z,9.279893
2022-09-09T10:44:10.169Z,9.279933
2022-09-09T10:45:10.152Z,9.279964
2022-09-09T10:46:10.214Z,9.279948
2022-09-09T10:47:10.139Z,9.279907
2022-09-09T10:48:10.094Z,9.279905
2022-09-09T10:49:10.080Z,9.279921
2022-09-09T10:50:10.101Z,9.279939
2022-09-09T10:51:10.035Z,9.279985
2022-09-09T10:52:10.045Z,9.279941
2022-09-09T10:53:09.996Z,9.279929
2022-09-09T10:54:09.979Z,9.279956
2022-09-09T10:55:09.963Z,9.279947
2022-09-09T10:56:09.935Z,9.279963
2022-09-09T10:57:09.946Z,9.279971
2022-09-09T10:58:09.900Z,9.279981
2022-09-09T10:59:09.877Z,9.279991
2022-09-09T11:00:09.879Z,9.279927
2022-09-09T11:01:09.864Z,9.279945
2022-09-09T11:02:09.854Z,9.279933
2022-09-09T11:03:09.802Z,9.279973
2022-09-09T11:04:09.820Z,9.279925
2022-09-09T11:05:09.767Z,9.279909
2022-09-09T11:06:09.781Z,9.279926
2022-09-09T11:07:12.123Z,9.279989
2022-09-09T11:08:10.757Z,9.279971
2022-09-09T11:09:09.691Z,9.279943
2022-09-09T11:10:09.670Z,9.279909
2022-09-09T11:11:09.651Z,9.279916
2022-09-09T11:12:09.656Z,9.279944
2022-09-09T11:13:09.612Z,9.279983
2022-09-09T11:14:09.593Z,9.280037
2022-09-09T11:15:09.926Z,9.279993
2022-09-09T11:16:09.550Z,9.280000
2022-09-09T11:17:09.559Z,9.280014
2022-09-09T11:18:09.514Z,9.280007
2022-09-09T11:19:09.493Z,9.279968
2022-09-09T11:20:09.468Z,9.279984
2022-09-09T11:21:09.456Z,9.279990
2022-09-09T11:22:09.463Z,9.279986
2022-09-09T11:23:09.436Z,9.279964
2022-09-09T11:24:09.396Z,9.280046
2022-09-09T11:25:09.389Z,9.279968
2022-09-09T11:26:09.358Z,9.279882
2022-09-09T11:27:09.388Z,9.279952
2022-09-09T11:28:09.326Z,9.279947
2022-09-09T11:29:09.319Z,9.279979
2022-09-09T11:30:09.284Z,9.280022
2022-09-09T11:31:09.311Z,9.279964
2022-09-09T11:32:09.271Z,9.279910
2022-09-09T11:33:09.225Z,9.280012
2022-09-09T11:34:09.206Z,9.280006
2022-09-09T11:35:09.192Z,9.279920
2022-09-09T11:36:09.169Z,9.279966
2022-09-09T11:37:09.175Z,9.279984
2022-09-09T11:38:09.131Z,9.280002
2022-09-09T11:39:09.117Z,9.279966
2022-09-09T11:40:09.128Z,9.280044
2022-09-09T11:41:09.073Z,9.279997
2022-09-09T11:42:09.483Z,9.279911
2022-09-09T11:43:09.035Z,9.279918
2022-09-09T11:44:09.022Z,9.280038
2022-09-09T11:45:09.014Z,9.280030
2022-09-09T11:46:09.041Z,9.279973
2022-09-09T11:47:08.985Z,9.279889